Time;durP1;ratioP1;P1;durP2;ratioP2;P2;SDS_P1;SDS_P2;PMS_P1;PMS_P2;Temp;Humidity;BMP_temperature;BMP_pressure;BME280_temperature;BME280_humidity;BME280_pressure;Samples;Min_cycle;Max_cycle;Signal;HPM_P1;HPM_P2
2022/07/31 00:00:22;;;;;;;;;;;;;;;19.42;85.46;101775.19;5054104;28;19921;-55
2022/07/31 00:02:47;;;;;;;;;;;;;;;19.45;85.55;101761.59;5036294;28;19925;-56
2022/07/31 00:05:13;;;;;;;;;;;;;;;19.45;85.86;101761.59;5054467;28;19924;-53
2022/07/31 00:07:38;;;;;;;;;;;;;;;19.46;87.29;101757.06;5054326;28;19919;-55
2022/07/31 00:10:03;;;;;;;;;;;;;;;19.46;88.22;101759.75;5053994;28;19963;-53
2022/07/31 00:12:29;;;;;;;;;;;;;;;19.44;90.40;101759.84;5054197;28;19924;-54
2022/07/31 00:14:54;;;;;;;;;;;;;;;19.40;92.51;101754.78;5036157;28;19920;-55
2022/07/31 00:17:19;;;;;;;;;;;;;;;19.39;93.50;101747.72;5054511;28;19913;-55
2022/07/31 00:19:44;;;;;;;;;;;;;;;19.39;94.72;101751.25;5054119;28;19919;-54
2022/07/31 00:22:11;;;;;;;;;;;;;;;19.39;96.44;101747.72;5053918;28;19921;-55
2022/07/31 00:24:36;;;;;;;;;;;;;;;19.37;97.68;101744.25;5053934;28;19938;-56
2022/07/31 00:27:02;;;;;;;;;;;;;;;19.38;99.17;101746.84;5054100;28;20326;-56
2022/07/31 00:29:27;;;;;;;;;;;;;;;19.35;100.00;101741.69;5053932;28;19917;-55
2022/07/31 00:31:52;;;;;;;;;;;;;;;19.32;100.00;101744.56;5052932;28;19952;-56
2022/07/31 00:34:17;;;;;;;;;;;;;;;19.28;100.00;101741.25;5031932;28;20343;-56
2022/07/31 00:36:42;;;;;;;;;;;;;;;19.24;100.00;101745.09;5033933;28;19918;-56
2022/07/31 00:39:09;;;;;;;;;;;;;;;19.24;100.00;101737.03;5016389;28;19913;-57
2022/07/31 00:41:41;;;;;;;;;;;;;;;19.24;100.00;101738.88;5038910;28;19927;-57
2022/07/31 00:44:07;;;;;;;;;;;;;;;19.23;100.00;101727.25;5020512;28;19947;-56
2022/07/31 00:46:32;;;;;;;;;;;;;;;19.25;100.00;101733.38;5053760;28;19912;-54
2022/07/31 00:48:57;;;;;;;;;;;;;;;19.25;100.00;101732.53;5053488;28;19917;-56
2022/07/31 00:51:23;;;;;;;;;;;;;;;19.27;100.00;101727.91;5035604;28;19924;-55
2022/07/31 00:53:48;;;;;;;;;;;;;;;19.27;100.00;101726.09;5053239;28;20342;-55
2022/07/31 00:56:13;;;;;;;;;;;;;;;19.30;100.00;101725.03;5053266;28;19920;-55
2022/07/31 00:58:38;;;;;;;;;;;;;;;19.32;100.00;101720.41;5053317;28;20004;-55
2022/07/31 01:01:04;;;;;;;;;;;;;;;19.32;100.00;101717.72;5018997;28;19928;-56
2022/07/31 01:03:29;;;;;;;;;;;;;;;19.30;100.00;101712.44;5052768;28;19925;-57
2022/07/31 01:05:55;;;;;;;;;;;;;;;19.32;100.00;101706.97;5053291;28;19913;-57
2022/07/31 01:08:20;;;;;;;;;;;;;;;19.30;100.00;101704.38;5053478;28;19917;-56
2022/07/31 01:10:53;;;;;;;;;;;;;;;19.31;100.00;101702.59;5053312;28;19917;-57
2022/07/31 01:13:26;;;;;;;;;;;;;;;19.33;100.00;101708.69;5052909;28;19916;-53
2022/07/31 01:15:52;;;;;;;;;;;;;;;19.34;100.00;101710.41;5051847;28;20434;-55
2022/07/31 01:18:19;;;;;;;;;;;;;;;19.36;100.00;101713.88;5035399;28;19913;-56
2022/07/31 01:20:47;;;;;;;;;;;;;;;19.37;100.00;101712.88;5035107;28;19913;-54
2022/07/31 01:23:21;;;;;;;;;;;;;;;19.40;100.00;101717.19;5052691;28;20269;-57
2022/07/31 01:26:17;;;;;;;;;;;;;;;19.39;100.00;101716.34;5052528;28;20447;-55
2022/07/31 01:29:00;;;;;;;;;;;;;;;19.41;100.00;101718.91;5053080;28;20022;-56
2022/07/31 01:31:32;;;;;;;;;;;;;;;19.39;100.00;101716.34;5051912;28;19916;-57
2022/07/31 01:34:04;;;;;;;;;;;;;;;19.37;100.00;101712.88;5052290;28;19939;-55
2022/07/31 01:36:33;;;;;;;;;;;;;;;19.35;100.00;101719.31;5051795;28;19920;-55
2022/07/31 01:38:59;;;;;;;;;;;;;;;19.36;100.00;101708.50;5052455;28;19960;-55
2022/07/31 01:41:27;;;;;;;;;;;;;;;19.31;100.00;101706.13;5052772;28;20004;-56
2022/07/31 01:43:54;;;;;;;;;;;;;;;19.32;100.00;101704.28;5052713;28;20403;-56
2022/07/31 01:46:20;;;;;;;;;;;;;;;19.30;100.00;101700.84;5051451;28;20384;-56
2022/07/31 01:48:47;;;;;;;;;;;;;;;19.27;100.00;101696.56;5052439;28;19928;-55
2022/07/31 01:51:12;;;;;;;;;;;;;;;19.27;100.00;101691.19;5052702;28;20170;-55
2022/07/31 01:53:38;;;;;;;;;;;;;;;19.25;100.00;101698.47;5052502;28;19921;-56
2022/07/31 01:56:05;;;;;;;;;;;;;;;19.20;100.00;101695.25;5051906;28;20020;-56
2022/07/31 01:58:34;;;;;;;;;;;;;;;19.18;100.00;101690.94;5034316;28;19928;-55
2022/07/31 02:01:02;;;;;;;;;;;;;;;19.16;100.00;101697.28;5034531;28;19917;-57
2022/07/31 02:03:29;;;;;;;;;;;;;;;19.15;100.00;101687.50;5052313;28;20351;-57
2022/07/31 02:05:55;;;;;;;;;;;;;;;19.14;100.00;101683.13;5051717;28;19917;-55
2022/07/31 02:08:23;;;;;;;;;;;;;;;19.11;100.00;101685.13;5034355;28;20410;-56
2022/07/31 02:10:49;;;;;;;;;;;;;;;19.14;100.00;101683.13;5034786;28;19995;-54
2022/07/31 02:13:16;;;;;;;;;;;;;;;19.13;100.00;101673.31;5052142;28;20382;-54
2022/07/31 02:15:42;;;;;;;;;;;;;;;19.13;100.00;101675.13;5033902;28;20133;-54
2022/07/31 02:18:08;;;;;;;;;;;;;;;19.08;100.00;101663.84;5032992;28;19956;-55
2022/07/31 02:20:35;;;;;;;;;;;;;;;19.06;100.00;101666.66;5034319;28;20019;-57
2022/07/31 02:23:00;;;;;;;;;;;;;;;19.06;100.00;101668.47;5052047;28;19917;-54
2022/07/31 02:25:26;;;;;;;;;;;;;;;19.08;100.00;101661.16;5034278;28;20364;-55
2022/07/31 02:27:52;;;;;;;;;;;;;;;19.07;100.00;101665.69;5051735;28;19917;-57
2022/07/31 02:30:17;;;;;;;;;;;;;;;19.07;100.00;101659.47;5034428;28;19965;-57
2022/07/31 02:32:46;;;;;;;;;;;;;;;19.07;100.00;101656.78;5052345;28;20384;-54
2022/07/31 02:35:14;;;;;;;;;;;;;;;19.11;100.00;101659.13;5051799;28;20402;-56
2022/07/31 02:37:41;;;;;;;;;;;;;;;19.12;100.00;101647.44;5051038;28;19923;-54
2022/07/31 02:40:07;;;;;;;;;;;;;;;19.12;100.00;101639.38;5051329;28;19916;-56
2022/07/31 02:42:33;;;;;;;;;;;;;;;19.12;100.00;101649.28;5051979;28;19917;-56
2022/07/31 02:44:59;;;;;;;;;;;;;;;19.09;100.00;101655.72;5051690;28;19920;-55
2022/07/31 02:47:25;;;;;;;;;;;;;;;19.10;100.00;101661.94;5033704;28;19951;-53
2022/07/31 02:49:50;;;;;;;;;;;;;;;19.11;100.00;101669.03;5051846;28;19967;-55
2022/07/31 02:52:16;;;;;;;;;;;;;;;19.09;100.00;101658.41;5034120;28;20363;-54
2022/07/31 02:54:43;;;;;;;;;;;;;;;19.10;100.00;101651.19;5051688;28;19944;-50
2022/07/31 02:57:08;;;;;;;;;;;;;;;19.10;100.00;101653.88;5051551;28;19921;-54
2022/07/31 02:59:37;;;;;;;;;;;;;;;19.12;100.00;101646.59;5050998;28;19928;-54
2022/07/31 03:02:03;;;;;;;;;;;;;;;19.11;100.00;101642.19;5051599;28;20368;-51
2022/07/31 03:04:28;;;;;;;;;;;;;;;19.13;100.00;101648.28;5035421;28;19928;-55
2022/07/31 03:06:54;;;;;;;;;;;;;;;19.14;100.00;101650.00;5055444;28;19916;-57
2022/07/31 03:09:19;;;;;;;;;;;;;;;19.12;100.00;101638.53;5055096;28;19924;-56
2022/07/31 03:11:44;;;;;;;;;;;;;;;19.10;100.00;101629.72;5037817;28;20372;-56
2022/07/31 03:14:11;;;;;;;;;;;;;;;19.09;100.00;101633.38;5037690;28;20362;-56
2022/07/31 03:16:37;;;;;;;;;;;;;;;19.08;100.00;101628.94;5037480;28;19913;-56
2022/07/31 03:19:03;;;;;;;;;;;;;;;19.05;100.00;101635.38;5055006;28;19924;-53
2022/07/31 03:21:29;;;;;;;;;;;;;;;19.03;100.00;101628.41;5055306;28;20019;-55
2022/07/31 03:23:55;;;;;;;;;;;;;;;19.04;100.00;101631.00;5055378;28;19913;-57
2022/07/31 03:26:20;;;;;;;;;;;;;;;19.05;100.00;101639.91;5033269;28;19924;-55
2022/07/31 03:28:45;;;;;;;;;;;;;;;19.04;100.00;101639.06;5037061;28;19921;-56
2022/07/31 03:31:11;;;;;;;;;;;;;;;19.02;100.00;101640.13;5054838;28;19968;-56
2022/07/31 03:33:36;;;;;;;;;;;;;;;18.98;100.00;101640.31;5055159;28;19917;-56
2022/07/31 03:36:01;;;;;;;;;;;;;;;18.98;100.00;101643.00;5054735;28;19945;-57
2022/07/31 03:38:26;;;;;;;;;;;;;;;18.90;100.00;101644.50;5055013;28;19913;-57
2022/07/31 03:40:52;;;;;;;;;;;;;;;18.88;100.00;101630.31;5054504;28;19947;-55
2022/07/31 03:43:18;;;;;;;;;;;;;;;18.83;100.00;101635.97;5054722;28;19921;-55
2022/07/31 03:45:44;;;;;;;;;;;;;;;18.81;100.00;101638.75;5054779;28;20410;-56
2022/07/31 03:48:10;;;;;;;;;;;;;;;18.80;100.00;101630.81;5054775;28;19949;-54
2022/07/31 03:50:36;;;;;;;;;;;;;;;18.81;100.00;101636.06;5054291;28;19916;-57
2022/07/31 03:53:02;;;;;;;;;;;;;;;18.79;100.00;101631.78;5054772;28;20361;-57
2022/07/31 03:55:29;;;;;;;;;;;;;;;18.79;100.00;101629.94;5054652;28;19924;-56
2022/07/31 03:57:54;;;;;;;;;;;;;;;18.80;100.00;101622.75;5054670;28;19928;-57
2022/07/31 04:00:25;;;;;;;;;;;;;;;18.81;100.00;101619.97;5036681;28;19924;-57
2022/07/31 04:02:51;;;;;;;;;;;;;;;18.83;100.00;101626.06;5054353;28;19921;-57
2022/07/31 04:05:16;;;;;;;;;;;;;;;18.84;100.00;101624.28;5054764;28;20390;-56
2022/07/31 04:07:41;;;;;;;;;;;;;;;18.82;100.00;101620.81;5054266;28;19920;-56
2022/07/31 04:10:07;;;;;;;;;;;;;;;18.80;100.00;101620.09;5054297;28;19917;-55
2022/07/31 04:12:32;;;;;;;;;;;;;;;18.79;100.00;101615.69;5053834;28;19924;-57
2022/07/31 04:14:57;;;;;;;;;;;;;;;18.77;100.00;101618.47;5053398;28;19951;-58
2022/07/31 04:17:22;;;;;;;;;;;;;;;18.81;100.00;101619.09;5053868;28;20345;-57
2022/07/31 04:19:48;;;;;;;;;;;;;;;18.81;100.00;101616.41;5054559;28;20315;-56
2022/07/31 04:22:13;;;;;;;;;;;;;;;18.82;100.00;101620.81;5037234;28;20369;-55
2022/07/31 04:24:39;;;;;;;;;;;;;;;18.79;100.00;101616.53;5054283;28;20422;-56
2022/07/31 04:27:04;;;;;;;;;;;;;;;18.81;100.00;101603.00;5053818;28;20346;-56
2022/07/31 04:29:30;;;;;;;;;;;;;;;18.79;100.00;101608.47;5034315;28;20274;-56
2022/07/31 04:31:55;;;;;;;;;;;;;;;18.82;100.00;101604.72;5042989;28;19921;-57
2022/07/31 04:34:21;;;;;;;;;;;;;;;18.86;100.00;101602.69;5053862;28;19924;-57
2022/07/31 04:36:46;;;;;;;;;;;;;;;18.88;100.00;101598.94;5053750;28;19971;-57
2022/07/31 04:39:11;;;;;;;;;;;;;;;18.92;100.00;101605.00;5036298;28;19919;-54
2022/07/31 04:41:36;;;;;;;;;;;;;;;18.91;100.00;101608.63;5035409;28;20419;-55
2022/07/31 04:44:02;;;;;;;;;;;;;;;18.93;100.00;101615.63;5053399;28;20292;-56
2022/07/31 04:46:27;;;;;;;;;;;;;;;18.96;100.00;101606.50;5053261;28;19924;-56
2022/07/31 04:48:52;;;;;;;;;;;;;;;18.94;100.00;101614.66;5051596;28;19928;-56
2022/07/31 04:51:19;;;;;;;;;;;;;;;18.97;100.00;101603.72;5033026;28;19921;-56
2022/07/31 04:53:44;;;;;;;;;;;;;;;18.95;100.00;101596.72;5049826;28;19921;-55
2022/07/31 04:58:53;;;;;;;;;;;;;;;19.02;100.00;101599.88;5053811;28;20330;-57
2022/07/31 05:01:19;;;;;;;;;;;;;;;19.02;100.00;101608.78;5053390;28;20441;-57
2022/07/31 05:03:44;;;;;;;;;;;;;;;19.00;100.00;101599.94;5036463;28;20534;-56
2022/07/31 05:06:10;;;;;;;;;;;;;;;19.02;100.00;101598.03;5052969;28;20297;-56
2022/07/31 05:08:36;;;;;;;;;;;;;;;19.05;100.00;101608.56;5053162;28;19920;-56
2022/07/31 05:13:45;;;;;;;;;;;;;;;19.07;100.00;101603.94;5038108;28;19940;-56
2022/07/31 05:16:10;;;;;;;;;;;;;;;19.13;100.00;101600.84;5052738;28;20304;-56
2022/07/31 05:18:36;;;;;;;;;;;;;;;19.19;100.00;101598.69;5053043;28;19917;-57
2022/07/31 05:21:01;;;;;;;;;;;;;;;19.22;100.00;101593.97;5053073;28;20288;-57
2022/07/31 05:23:26;;;;;;;;;;;;;;;19.23;100.00;101593.00;5052796;28;19925;-55
2022/07/31 05:25:51;;;;;;;;;;;;;;;19.25;100.00;101596.44;5052208;28;19947;-56
2022/07/31 05:28:17;;;;;;;;;;;;;;;19.27;100.00;101596.31;5051037;28;19921;-57
2022/07/31 05:30:42;;;;;;;;;;;;;;;19.25;100.00;101596.44;5051889;28;20019;-57
2022/07/31 05:33:07;;;;;;;;;;;;;;;19.25;100.00;101588.38;5046864;28;20023;-58
2022/07/31 05:35:32;;;;;;;;;;;;;;;19.23;100.00;101594.81;5049458;28;19974;-57
2022/07/31 05:37:58;;;;;;;;;;;;;;;19.26;100.00;101586.53;5044792;28;20376;-56
2022/07/31 05:40:23;;;;;;;;;;;;;;;19.34;100.00;101592.25;5051911;28;19962;-58
2022/07/31 05:42:48;;;;;;;;;;;;;;;19.35;100.00;101593.97;5050330;28;19921;-55
2022/07/31 05:45:13;;;;;;;;;;;;;;;19.37;100.00;101591.19;5049552;28;19921;-57
2022/07/31 05:47:38;;;;;;;;;;;;;;;19.43;100.00;101590.75;5050723;28;19975;-57
2022/07/31 05:50:04;;;;;;;;;;;;;;;19.48;100.00;101580.53;5051041;28;19948;-58
2022/07/31 05:52:29;;;;;;;;;;;;;;;19.56;100.00;101588.06;5047357;28;20019;-57
2022/07/31 05:54:54;;;;;;;;;;;;;;;19.57;100.00;101581.72;5051784;28;20284;-55
2022/07/31 05:57:20;;;;;;;;;;;;;;;19.54;100.00;101588.16;5051930;28;19940;-57
2022/07/31 05:59:45;;;;;;;;;;;;;;;19.52;100.00;101570.44;5052158;28;20015;-57
2022/07/31 06:02:11;;;;;;;;;;;;;;;19.53;100.00;101586.44;5051325;28;19999;-58
2022/07/31 06:04:36;;;;;;;;;;;;;;;19.58;100.00;101576.22;5051413;28;19975;-58
2022/07/31 06:07:01;;;;;;;;;;;;;;;19.56;100.00;101574.63;5051737;28;20266;-58
2022/07/31 06:09:26;;;;;;;;;;;;;;;19.69;100.00;101586.19;5033668;28;19919;-58
2022/07/31 06:11:52;;;;;;;;;;;;;;;19.77;100.00;101585.66;5051802;28;19920;-58
2022/07/31 06:14:17;;;;;;;;;;;;;;;19.80;100.00;101588.97;5030911;28;19929;-58
2022/07/31 06:16:44;;;;;;;;;;;;;;;19.81;100.00;101589.84;5048688;28;20024;-57
2022/07/31 06:19:09;;;;;;;;;;;;;;;19.77;100.00;101586.53;5062860;28;19924;-57
2022/07/31 06:21:34;;;;;;;;;;;;;;;19.83;100.00;101593.31;5051703;28;19917;-56
2022/07/31 06:23:59;;;;;;;;;;;;;;;19.85;100.00;101591.38;5051793;28;20269;-57
2022/07/31 06:26:25;;;;;;;;;;;;;;;19.86;100.00;101589.53;5033459;28;20323;-58
2022/07/31 06:28:50;;;;;;;;;;;;;;;19.84;100.00;101586.13;5046003;28;20332;-57
2022/07/31 06:31:20;;;;;;;;;;;;;;;19.83;100.00;101585.25;5032806;28;19920;-58
2022/07/31 06:33:45;;;;;;;;;;;;;;;19.79;100.00;101587.25;5047218;28;19921;-57
2022/07/31 06:36:10;;;;;;;;;;;;;;;19.74;100.00;101592.09;5049459;28;19917;-58
2022/07/31 06:38:36;;;;;;;;;;;;;;;19.72;100.00;101585.13;5033640;28;20448;-57
2022/07/31 06:41:01;;;;;;;;;;;;;;;19.68;100.00;101580.94;5037477;28;20377;-58
2022/07/31 06:43:26;;;;;;;;;;;;;;;19.67;100.00;101579.22;5055764;28;19917;-58
2022/07/31 06:45:51;;;;;;;;;;;;;;;19.73;100.00;101587.72;5055464;28;20053;-58
2022/07/31 06:48:17;;;;;;;;;;;;;;;19.81;100.00;101590.69;5048754;28;19924;-57
2022/07/31 06:50:42;;;;;;;;;;;;;;;19.85;100.00;101586.00;5055707;28;19927;-57
2022/07/31 06:53:07;;;;;;;;;;;;;;;19.93;100.00;101575.53;5054621;28;19920;-57
2022/07/31 06:55:32;;;;;;;;;;;;;;;20.01;100.00;101574.13;5055473;28;20015;-58
2022/07/31 06:57:57;;;;;;;;;;;;;;;20.03;100.00;101580.25;5054942;28;19924;-58
2022/07/31 07:00:23;;;;;;;;;;;;;;;20.07;100.00;101584.44;5037167;28;19928;-56
2022/07/31 07:02:48;;;;;;;;;;;;;;;20.09;100.00;101577.97;5053573;28;19925;-57
2022/07/31 07:05:13;;;;;;;;;;;;;;;20.13;100.00;101584.84;5049047;28;19932;-57
2022/07/31 07:07:38;;;;;;;;;;;;;;;20.12;100.00;101587.66;5054862;28;19985;-56
2022/07/31 07:10:04;;;;;;;;;;;;;;;20.09;100.00;101587.84;5035659;28;19927;-57
2022/07/31 07:12:29;;;;;;;;;;;;;;;20.06;100.00;101590.78;5054758;28;19919;-56
2022/07/31 07:14:55;;;;;;;;;;;;;;;20.03;100.00;101580.25;5054792;28;19932;-57
2022/07/31 07:17:20;;;;;;;;;;;;;;;20.01;100.00;101592.94;5055447;28;19920;-56
2022/07/31 07:19:45;;;;;;;;;;;;;;;20.02;100.00;101575.84;5054633;28;19924;-57
2022/07/31 07:22:11;;;;;;;;;;;;;;;20.06;100.00;101580.03;5054865;28;19912;-57
2022/07/31 07:24:36;;;;;;;;;;;;;;;20.04;100.00;101577.47;5054447;28;19921;-57
2022/07/31 07:27:02;;;;;;;;;;;;;;;19.93;100.00;101580.06;5053187;28;19920;-58
2022/07/31 07:29:27;;;;;;;;;;;;;;;19.90;100.00;101575.78;5051257;28;19964;-58
2022/07/31 07:31:52;;;;;;;;;;;;;;;19.83;100.00;101579.00;5053552;28;20381;-58
2022/07/31 07:34:17;;;;;;;;;;;;;;;19.79;100.00;101568.44;5036609;28;19917;-58
2022/07/31 07:36:43;;;;;;;;;;;;;;;19.74;100.00;101567.91;5046036;28;19964;-58
2022/07/31 07:39:08;;;;;;;;;;;;;;;19.73;100.00;101563.53;5045236;28;20280;-58
2022/07/31 07:41:33;;;;;;;;;;;;;;;19.78;100.00;101568.56;5051830;28;19955;-57
2022/07/31 07:43:59;;;;;;;;;;;;;;;19.80;100.00;101572.00;5026722;28;19916;-57
2022/07/31 07:46:24;;;;;;;;;;;;;;;19.81;100.00;101571.03;5046604;28;19952;-58
2022/07/31 07:48:49;;;;;;;;;;;;;;;19.99;100.00;101571.56;5030899;28;19951;-58
2022/07/31 07:51:15;;;;;;;;;;;;;;;20.18;100.00;101562.13;5043708;28;19920;-57
2022/07/31 07:53:40;;;;;;;;;;;;;;;20.22;100.00;101577.91;5055395;28;19982;-57
2022/07/31 07:56:05;;;;;;;;;;;;;;;20.22;100.00;101572.53;5054128;28;19921;-58
2022/07/31 07:58:31;;;;;;;;;;;;;;;20.20;100.00;101573.63;5054591;28;20383;-57
2022/07/31 08:00:56;;;;;;;;;;;;;;;20.16;100.00;101572.16;5049211;28;19925;-58
2022/07/31 08:03:21;;;;;;;;;;;;;;;20.04;100.00;101571.19;5043185;28;19925;-58
2022/07/31 08:05:46;;;;;;;;;;;;;;;20.05;100.00;101568.44;5053914;28;19938;-58
2022/07/31 08:08:11;;;;;;;;;;;;;;;20.13;100.00;101565.16;5054166;28;20005;-58
2022/07/31 08:10:38;;;;;;;;;;;;;;;20.12;100.00;101563.44;5035970;28;19912;-58
2022/07/31 08:13:03;;;;;;;;;;;;;;;20.13;100.00;101565.16;5053627;28;19923;-58
2022/07/31 08:15:29;;;;;;;;;;;;;;;20.24;100.00;101564.34;5019800;28;19924;-58
2022/07/31 08:17:55;;;;;;;;;;;;;;;20.32;100.00;101561.97;5035208;28;19970;-57
2022/07/31 08:20:20;;;;;;;;;;;;;;;20.38;100.00;101561.47;5049664;28;19921;-58
2022/07/31 08:22:45;;;;;;;;;;;;;;;20.40;100.00;101556.00;5051514;28;19927;-59
2022/07/31 08:25:11;;;;;;;;;;;;;;;20.40;100.00;101561.41;5051555;28;19920;-50
2022/07/31 08:27:36;;;;;;;;;;;;;;;20.40;100.00;101554.16;5052706;28;19994;-51
2022/07/31 08:30:02;;;;;;;;;;;;;;;20.49;100.00;101559.81;5053153;28;19924;-50
2022/07/31 08:32:27;;;;;;;;;;;;;;;20.49;100.00;101558.00;5050848;28;19920;-58
2022/07/31 08:34:53;;;;;;;;;;;;;;;20.56;100.00;101555.69;5053107;28;20288;-59
2022/07/31 08:37:19;;;;;;;;;;;;;;;20.56;100.00;101561.06;5052309;28;19971;-48
2022/07/31 08:39:45;;;;;;;;;;;;;;;20.50;100.00;101559.72;5052399;28;19968;-59
2022/07/31 08:42:10;;;;;;;;;;;;;;;20.54;100.00;101563.03;5052060;28;19959;-59
2022/07/31 08:44:36;;;;;;;;;;;;;;;20.52;100.00;101560.44;5035338;28;19952;-58
2022/07/31 08:47:04;;;;;;;;;;;;;;;20.54;100.00;101563.88;5053328;28;19940;-58
2022/07/31 08:49:31;;;;;;;;;;;;;;;20.48;100.00;101571.56;5034340;28;19924;-59
2022/07/31 08:51:58;;;;;;;;;;;;;;;20.43;100.00;101566.53;5052014;28;19920;-57
2022/07/31 08:54:25;;;;;;;;;;;;;;;20.48;100.00;101566.19;5053346;28;19964;-58
2022/07/31 08:56:51;;;;;;;;;;;;;;;20.50;100.00;101565.09;5035355;28;19928;-57
2022/07/31 08:59:17;;;;;;;;;;;;;;;20.54;100.00;101566.59;5052971;28;20007;-58
2022/07/31 09:01:42;;;;;;;;;;;;;;;20.43;100.00;101567.38;5050797;28;19917;-57
2022/07/31 09:04:08;;;;;;;;;;;;;;;20.45;100.00;101569.97;5043109;28;20331;-57
2022/07/31 09:06:33;;;;;;;;;;;;;;;20.40;100.00;101561.41;5052924;28;20265;-58
2022/07/31 09:08:58;;;;;;;;;;;;;;;20.38;100.00;101566.88;5051414;28;19917;-58
2022/07/31 09:11:23;;;;;;;;;;;;;;;20.43;100.00;101569.22;5051887;28;19986;-58
2022/07/31 09:13:56;;;;;;;;;;;;;;;20.32;100.00;101558.41;5052697;28;20042;-57
2022/07/31 09:16:22;;;;;;;;;;;;;;;20.38;100.00;101556.09;5053059;28;19917;-57
2022/07/31 09:19:01;;;;;;;;;;;;;;;20.36;100.00;101558.06;5052373;28;19912;-58
2022/07/31 09:21:37;;;;;;;;;;;;;;;20.19;100.00;101556.63;5052296;28;19917;-58
2022/07/31 09:24:02;;;;;;;;;;;;;;;20.13;100.00;101552.56;5052401;28;20031;-58
2022/07/31 09:26:33;;;;;;;;;;;;;;;20.15;100.00;101552.44;5052158;28;20015;-57
2022/07/31 09:28:59;;;;;;;;;;;;;;;20.18;100.00;101544.16;5052686;28;19916;-57
2022/07/31 09:31:30;;;;;;;;;;;;;;;20.12;100.00;101552.69;5033253;28;19927;-57
2022/07/31 09:33:55;;;;;;;;;;;;;;;20.07;100.00;101552.19;5051785;28;19917;-57
2022/07/31 09:36:24;;;;;;;;;;;;;;;19.96;100.00;101556.50;5052587;28;19927;-57
2022/07/31 09:38:49;;;;;;;;;;;;;;;19.86;100.00;101536.66;5052529;28;19923;-57
2022/07/31 09:41:16;;;;;;;;;;;;;;;19.75;100.00;101552.66;5051063;28;20387;-56
2022/07/31 09:43:42;;;;;;;;;;;;;;;19.72;100.00;101553.75;5051548;28;19920;-57
2022/07/31 09:46:07;;;;;;;;;;;;;;;19.68;100.00;101551.38;5051724;28;19970;-57
2022/07/31 09:48:33;;;;;;;;;;;;;;;19.61;100.00;101557.19;5051724;28;19916;-57
2022/07/31 09:51:00;;;;;;;;;;;;;;;19.58;100.00;101559.28;5051414;28;20000;-57
2022/07/31 09:53:26;;;;;;;;;;;;;;;19.59;100.00;101560.97;5052284;28;19913;-57
2022/07/31 09:55:52;;;;;;;;;;;;;;;19.59;100.00;101556.47;5052268;28;19924;-58
2022/07/31 09:58:17;;;;;;;;;;;;;;;19.59;100.00;101555.59;5033777;28;19921;-57
2022/07/31 10:00:42;;;;;;;;;;;;;;;19.52;100.00;101552.50;5051912;28;20312;-57
2022/07/31 10:03:08;;;;;;;;;;;;;;;19.58;100.00;101552.06;5051897;28;20004;-57
2022/07/31 10:05:34;;;;;;;;;;;;;;;19.68;100.00;101554.94;5051619;28;19920;-58
2022/07/31 10:08:00;;;;;;;;;;;;;;;19.75;100.00;101561.56;5034357;28;20002;-57
2022/07/31 10:10:27;;;;;;;;;;;;;;;19.76;100.00;101562.44;5051785;28;20014;-58
2022/07/31 10:12:53;;;;;;;;;;;;;;;19.82;100.00;101556.63;5051219;28;20452;-58
2022/07/31 10:15:19;;;;;;;;;;;;;;;19.84;100.00;101546.66;5051470;28;20274;-57
2022/07/31 10:17:46;;;;;;;;;;;;;;;19.84;100.00;101552.03;5051880;28;20177;-58
2022/07/31 10:20:13;;;;;;;;;;;;;;;19.77;100.00;101551.59;5051452;28;19919;-57
2022/07/31 10:22:42;;;;;;;;;;;;;;;19.79;100.00;101546.09;5051116;28;20011;-58
2022/07/31 10:25:11;;;;;;;;;;;;;;;19.79;100.00;101555.00;5033503;28;20232;-58
2022/07/31 10:27:36;;;;;;;;;;;;;;;19.90;100.00;101546.19;5051016;28;19983;-58
2022/07/31 10:30:03;;;;;;;;;;;;;;;19.93;100.00;101547.81;5051401;28;20381;-58
2022/07/31 10:32:30;;;;;;;;;;;;;;;19.97;100.00;101549.28;5051570;28;19913;-58
2022/07/31 10:34:55;;;;;;;;;;;;;;;19.98;100.00;101541.09;5032317;28;19921;-58
2022/07/31 10:37:23;;;;;;;;;;;;;;;20.04;100.00;101538.94;5051775;28;19917;-58
2022/07/31 10:39:55;;;;;;;;;;;;;;;20.07;100.00;101554.88;5051122;28;19917;-58
2022/07/31 10:42:38;;;;;;;;;;;;;;;20.02;100.00;101532.84;5050831;28;20388;-58
2022/07/31 10:45:05;;;;;;;;;;;;;;;20.08;100.00;101549.38;5047157;28;19927;-58
2022/07/31 10:47:31;;;;;;;;;;;;;;;20.16;100.00;101535.34;5051498;28;19916;-58
2022/07/31 10:49:56;;;;;;;;;;;;;;;20.26;100.00;101538.22;5051113;28;19962;-58
2022/07/31 10:52:27;;;;;;;;;;;;;;;20.35;100.00;101542.06;5051195;28;19935;-58
2022/07/31 10:54:56;;;;;;;;;;;;;;;20.36;100.00;101541.94;5050915;28;20024;-58
2022/07/31 10:57:23;;;;;;;;;;;;;;;20.36;100.00;101541.94;5051113;28;19928;-58
2022/07/31 10:59:48;;;;;;;;;;;;;;;20.13;100.00;101528.38;5051134;28;19924;-58
2022/07/31 11:02:25;;;;;;;;;;;;;;;20.06;100.00;101534.31;5051108;28;19917;-58
2022/07/31 11:04:50;;;;;;;;;;;;;;;20.05;100.00;101536.16;5050698;28;20003;-58
2022/07/31 11:07:18;;;;;;;;;;;;;;;20.08;100.00;101543.97;5050969;28;20016;-58
2022/07/31 11:09:44;;;;;;;;;;;;;;;20.26;100.00;101538.22;5051381;28;19928;-58
2022/07/31 11:12:19;;;;;;;;;;;;;;;20.53;100.00;101539.81;5016399;28;20304;-58
2022/07/31 11:14:44;;;;;;;;;;;;;;;20.86;100.00;101525.59;5044919;28;19921;-58
2022/07/31 11:17:10;;;;;;;;;;;;;;;21.03;100.00;101528.81;5050889;28;19916;-58
2022/07/31 11:19:38;;;;;;;;;;;;;;;20.96;100.00;101531.13;5050591;28;19928;-58
2022/07/31 11:22:11;;;;;;;;;;;;;;;20.81;100.00;101521.53;5032841;28;19943;-58
2022/07/31 11:24:37;;;;;;;;;;;;;;;20.78;100.00;101520.81;5051265;28;19926;-58
2022/07/31 11:27:02;;;;;;;;;;;;;;;20.74;100.00;101524.72;5054061;28;19916;-58
2022/07/31 11:29:30;;;;;;;;;;;;;;;20.71;100.00;101529.50;5054635;28;19927;-58
2022/07/31 11:31:58;;;;;;;;;;;;;;;20.71;100.00;101516.03;5054349;28;19917;-57
2022/07/31 11:34:24;;;;;;;;;;;;;;;20.62;100.00;101525.63;5054356;28;19972;-57
2022/07/31 11:36:50;;;;;;;;;;;;;;;20.59;100.00;101528.56;5036641;28;19921;-57
2022/07/31 11:39:15;;;;;;;;;;;;;;;20.48;100.00;101518.63;5053314;28;19921;-57
2022/07/31 11:41:40;;;;;;;;;;;;;;;20.54;100.00;101528.06;5036075;28;20295;-57
2022/07/31 11:44:05;;;;;;;;;;;;;;;20.62;100.00;101518.41;5038679;28;19921;-57
2022/07/31 11:46:32;;;;;;;;;;;;;;;20.70;100.00;101527.72;5054152;28;19951;-58
2022/07/31 11:48:58;;;;;;;;;;;;;;;20.87;100.00;101519.25;5053586;28;19917;-58
2022/07/31 11:51:24;;;;;;;;;;;;;;;21.02;100.00;101519.88;5054314;28;19924;-57
2022/07/31 11:53:50;;;;;;;;;;;;;;;21.28;100.00;101517.81;5036492;28;20395;-57
2022/07/31 11:56:16;;;;;;;;;;;;;;;21.48;100.00;101523.44;5052678;28;19929;-57
2022/07/31 11:58:46;;;;;;;;;;;;;;;21.84;100.00;101520.59;5051729;28;19932;-57
2022/07/31 12:01:11;;;;;;;;;;;;;;;21.85;100.00;101523.16;5035504;28;19917;-57
2022/07/31 12:03:37;;;;;;;;;;;;;;;21.75;100.00;101508.72;5052283;28;20458;-58
2022/07/31 12:06:03;;;;;;;;;;;;;;;21.67;100.00;101514.75;5052852;28;19939;-58
2022/07/31 12:08:29;;;;;;;;;;;;;;;21.88;100.00;101516.66;5052011;28;19924;-58
2022/07/31 12:10:56;;;;;;;;;;;;;;;21.90;100.00;101507.47;5046482;28;19982;-57
2022/07/31 12:13:22;;;;;;;;;;;;;;;21.58;100.00;101512.81;5052003;28;19943;-57
2022/07/31 12:15:56;;;;;;;;;;;;;;;21.34;100.00;101510.22;5053734;28;19924;-57
2022/07/31 12:18:22;;;;;;;;;;;;;;;21.33;100.00;101514.75;5053810;28;20425;-57
2022/07/31 12:20:56;;;;;;;;;;;;;;;21.44;100.00;101519.28;5052798;28;19917;-57
2022/07/31 12:23:23;;;;;;;;;;;;;;;21.49;100.00;101508.13;5035807;28;20368;-58
2022/07/31 12:25:48;;;;;;;;;;;;;;;21.53;100.00;101512.28;5053839;28;20257;-58
2022/07/31 12:28:14;;;;;;;;;;;;;;;21.48;100.00;101512.66;5053320;28;19928;-58